createdAt,value
2018-05-03T00:00:03.366Z,9.63
2018-05-03T00:02:31.687Z,7.00
2018-05-03T00:04:59.222Z,10.63
2018-05-03T00:07:26.785Z,8.30
2018-05-03T00:09:54.322Z,7.60
2018-05-03T00:12:22.742Z,6.60
2018-05-03T00:14:50.274Z,9.13
2018-05-03T00:17:17.825Z,5.07
2018-05-03T00:19:46.139Z,5.00
2018-05-03T00:22:13.701Z,7.80
2018-05-03T00:24:41.247Z,8.17
2018-05-03T00:27:08.802Z,8.60
2018-05-03T00:29:36.338Z,13.20
2018-05-03T00:32:04.671Z,8.40
2018-05-03T00:34:32.259Z,7.90
2018-05-03T00:36:59.822Z,13.83
2018-05-03T00:39:27.355Z,10.03
2018-05-03T00:41:54.911Z,6.30
2018-05-03T00:44:22.447Z,6.80
2018-05-03T00:46:50.006Z,6.77
2018-05-03T00:49:17.536Z,6.37
2018-05-03T00:51:45.860Z,7.50
2018-05-03T00:54:25.356Z,8.70
2018-05-03T00:56:53.686Z,10.60
2018-05-03T00:59:21.230Z,7.00
2018-05-03T01:01:49.547Z,8.00
2018-05-03T01:04:17.078Z,5.63
2018-05-03T01:06:44.638Z,10.67
2018-05-03T01:09:12.169Z,6.67
2018-05-03T01:11:39.697Z,4.87
2018-05-03T01:14:07.261Z,4.90
2018-05-03T01:16:35.568Z,6.70
2018-05-03T01:19:03.122Z,7.47
2018-05-03T01:21:30.655Z,8.10
2018-05-03T01:23:58.982Z,11.83
2018-05-03T01:26:26.514Z,12.57
2018-05-03T01:28:54.068Z,7.53
2018-05-03T01:31:22.363Z,7.23
2018-05-03T01:33:49.924Z,6.10
2018-05-03T01:36:27.244Z,5.43
2018-05-03T01:38:54.799Z,5.80
2018-05-03T01:41:22.336Z,7.77
2018-05-03T01:43:49.886Z,6.10
2018-05-03T01:46:18.182Z,9.83
2018-05-03T01:48:45.734Z,5.70
2018-05-03T01:51:13.266Z,4.80
2018-05-03T01:53:41.595Z,8.40
2018-05-03T01:56:09.133Z,4.73
2018-05-03T01:58:36.695Z,7.43
2018-05-03T02:01:04.240Z,14.63
2018-05-03T02:03:31.793Z,12.33
2018-05-03T02:06:00.091Z,5.93
2018-05-03T02:08:27.651Z,8.03
2018-05-03T02:10:55.218Z,10.63
2018-05-03T02:13:22.774Z,8.60
2018-05-03T02:15:50.315Z,7.57
2018-05-03T02:18:17.874Z,6.57
2018-05-03T02:20:45.407Z,7.10
2018-05-03T02:23:12.966Z,7.00
2018-05-03T02:25:41.263Z,6.30
2018-05-03T02:28:09.585Z,5.67
2018-05-03T02:30:37.114Z,7.33
2018-05-03T02:33:04.674Z,9.40
2018-05-03T02:35:32.221Z,6.43
2018-05-03T02:38:00.554Z,8.83
2018-05-03T02:40:28.095Z,7.40
2018-05-03T02:42:55.662Z,6.53
2018-05-03T02:45:23.191Z,7.13
2018-05-03T02:47:50.759Z,8.13
2018-05-03T02:50:18.299Z,7.60
2018-05-03T02:52:46.623Z,8.20
2018-05-03T02:55:14.163Z,6.07
2018-05-03T02:57:59.644Z,8.30
2018-05-03T03:00:44.802Z,10.00
2018-05-03T03:03:30.079Z,10.30
2018-05-03T03:06:09.596Z,6.50
2018-05-03T03:08:55.605Z,5.70
2018-05-03T03:14:50.094Z,6.53
2018-05-03T03:17:36.087Z,6.87
2018-05-03T03:20:37.222Z,10.20
2018-05-03T03:23:22.525Z,7.37
2018-05-03T03:26:08.409Z,10.17
2018-05-03T03:28:54.414Z,6.40
2018-05-03T03:31:39.766Z,6.53
2018-05-03T03:34:13.124Z,8.70
2018-05-03T03:37:01.355Z,8.27
2018-05-03T03:39:40.776Z,5.73
2018-05-03T03:42:42.682Z,7.47
2018-05-03T03:45:10.230Z,5.33
2018-05-03T03:47:37.768Z,7.27
2018-05-03T03:50:05.323Z,9.40
2018-05-03T03:52:32.858Z,11.83
2018-05-03T03:55:01.194Z,7.60
2018-05-03T03:57:28.732Z,6.70
2018-05-03T03:59:56.271Z,6.03
2018-05-03T04:02:23.848Z,5.67
2018-05-03T04:04:51.414Z,9.33
2018-05-03T04:07:18.977Z,13.80
2018-05-03T04:09:46.525Z,8.70
2018-05-03T04:12:14.076Z,7.53
2018-05-03T04:14:41.616Z,5.63
2018-05-03T04:17:09.939Z,4.83
2018-05-03T04:19:49.540Z,7.30
2018-05-03T04:22:39.499Z,7.33
2018-05-03T04:25:18.669Z,4.93
2018-05-03T04:27:46.218Z,5.53
2018-05-03T04:30:14.519Z,8.27
2018-05-03T04:32:42.084Z,5.27
2018-05-03T04:35:09.624Z,6.93
2018-05-03T04:37:37.944Z,7.17
2018-05-03T04:40:05.478Z,10.23
2018-05-03T04:42:33.029Z,5.83
2018-05-03T04:45:00.572Z,7.57
2018-05-03T04:47:28.900Z,10.80
2018-05-03T04:49:56.432Z,6.53
2018-05-03T04:52:23.995Z,5.30
2018-05-03T04:54:51.539Z,6.83
2018-05-03T04:57:19.098Z,4.57
2018-05-03T04:59:46.630Z,6.80
2018-05-03T05:02:14.245Z,7.53
2018-05-03T05:04:41.805Z,7.60
2018-05-03T05:07:09.363Z,10.03
2018-05-03T05:09:36.902Z,8.03
2018-05-03T05:12:04.431Z,5.43
2018-05-03T05:14:31.977Z,6.43
2018-05-03T05:16:59.511Z,5.47
2018-05-03T05:19:27.064Z,6.03
2018-05-03T05:21:54.603Z,10.43
2018-05-03T05:24:22.158Z,6.20
2018-05-03T05:26:49.694Z,9.63
2018-05-03T05:29:18.011Z,6.40
2018-05-03T05:31:45.543Z,6.60
2018-05-03T05:34:13.872Z,6.70
2018-05-03T05:36:41.411Z,9.93
2018-05-03T05:39:08.967Z,6.67
2018-05-03T05:41:36.507Z,5.97
2018-05-03T05:44:04.916Z,7.90
2018-05-03T05:46:32.450Z,7.60
2018-05-03T05:49:00.002Z,6.40
2018-05-03T05:51:28.308Z,7.37
2018-05-03T05:53:55.875Z,5.40
2018-05-03T05:56:23.429Z,19.43
2018-05-03T05:58:50.991Z,6.33
2018-05-03T06:01:18.514Z,6.87
2018-05-03T06:03:46.832Z,6.33
2018-05-03T06:06:14.367Z,8.40
2018-05-03T06:08:41.924Z,8.83
2018-05-03T06:11:09.463Z,8.80
2018-05-03T06:13:37.790Z,5.70
2018-05-03T06:16:05.482Z,9.33
2018-05-03T06:18:34.034Z,5.57
2018-05-03T06:21:02.426Z,7.57
2018-05-03T06:23:29.981Z,10.40
2018-05-03T06:25:57.582Z,6.97
2018-05-03T06:28:25.100Z,6.60
2018-05-03T06:30:52.630Z,8.50
2018-05-03T06:33:20.210Z,7.37
2018-05-03T06:35:47.746Z,12.30
2018-05-03T06:38:15.303Z,8.17
2018-05-03T06:40:43.598Z,9.30
2018-05-03T06:43:11.135Z,8.80
2018-05-03T06:45:39.465Z,14.73
2018-05-03T06:48:07.109Z,7.20
2018-05-03T06:50:34.668Z,9.90
2018-05-03T06:53:02.196Z,8.57
2018-05-03T06:55:30.518Z,6.13
2018-05-03T06:57:58.053Z,13.53
2018-05-03T07:00:25.613Z,8.00
2018-05-03T07:02:53.149Z,12.87
2018-05-03T07:05:21.481Z,7.40
2018-05-03T07:07:49.124Z,8.47
2018-05-03T07:10:16.679Z,8.67
2018-05-03T07:12:44.207Z,12.00
2018-05-03T07:15:12.529Z,5.60
2018-05-03T07:17:40.067Z,10.77
2018-05-03T07:20:07.623Z,13.93
2018-05-03T07:22:35.153Z,11.03
2018-05-03T07:25:03.486Z,9.77
2018-05-03T07:27:31.789Z,7.70
2018-05-03T07:29:59.346Z,20.93
2018-05-03T07:32:26.979Z,4.90
2018-05-03T07:34:54.549Z,5.60
2018-05-03T07:37:22.096Z,10.20
2018-05-03T07:39:49.651Z,7.30
2018-05-03T07:42:17.183Z,7.73
2018-05-03T07:44:45.502Z,7.40
2018-05-03T07:47:13.083Z,16.23
2018-05-03T07:49:41.382Z,7.80
2018-05-03T07:52:08.922Z,6.60
2018-05-03T07:54:36.483Z,13.33
2018-05-03T07:57:04.934Z,7.93
2018-05-03T07:59:32.497Z,6.80
2018-05-03T08:02:00.067Z,5.90
2018-05-03T08:04:27.627Z,9.87
2018-05-03T08:06:55.158Z,7.90
2018-05-03T08:09:22.714Z,8.30
2018-05-03T08:11:50.253Z,8.20
2018-05-03T08:14:18.574Z,8.57
2018-05-03T08:16:46.345Z,6.13
2018-05-03T08:19:13.919Z,9.03
2018-05-03T08:21:41.450Z,8.27
2018-05-03T08:24:09.010Z,15.23
2018-05-03T08:26:36.541Z,10.00
2018-05-03T08:29:04.869Z,10.17
2018-05-03T08:31:32.403Z,8.27
2018-05-03T08:33:59.958Z,6.70
2018-05-03T08:36:27.498Z,9.23
2018-05-03T08:38:55.796Z,8.87
2018-05-03T08:41:23.388Z,5.90
2018-05-03T08:43:50.912Z,19.33
2018-05-03T08:46:18.474Z,6.33
2018-05-03T08:48:46.010Z,6.70
2018-05-03T08:51:14.337Z,10.87
2018-05-03T08:53:41.870Z,11.40
2018-05-03T08:56:09.427Z,5.97
2018-05-03T08:58:36.962Z,6.13
2018-05-03T09:01:05.282Z,9.73
2018-05-03T09:03:32.826Z,6.80
2018-05-03T09:06:00.385Z,7.53
2018-05-03T09:08:27.923Z,9.50
2018-05-03T09:10:56.248Z,8.63
2018-05-03T09:13:23.778Z,7.27
2018-05-03T09:15:51.329Z,6.23
2018-05-03T09:18:19.622Z,8.03
2018-05-03T09:20:47.937Z,5.70
2018-05-03T09:23:15.461Z,7.07
2018-05-03T09:25:43.018Z,8.50
2018-05-03T09:28:10.558Z,10.83
2018-05-03T09:30:38.878Z,8.80
2018-05-03T09:33:06.417Z,10.63
2018-05-03T09:35:33.972Z,7.33
2018-05-03T09:38:01.566Z,11.10
2018-05-03T09:40:29.126Z,8.97
2018-05-03T09:42:57.430Z,7.23
2018-05-03T09:45:24.990Z,10.73
2018-05-03T09:47:53.293Z,9.80
2018-05-03T09:50:21.729Z,14.73
2018-05-03T09:52:49.266Z,10.70
2018-05-03T09:55:16.830Z,15.10
2018-05-03T09:57:44.363Z,9.13
2018-05-03T10:00:11.999Z,8.50
2018-05-03T10:02:39.510Z,21.03
2018-05-03T10:05:07.826Z,7.47
2018-05-03T10:07:35.361Z,12.07
2018-05-03T10:10:02.936Z,9.80
2018-05-03T10:12:30.474Z,13.30
2018-05-03T10:14:58.055Z,10.13
2018-05-03T10:17:25.595Z,8.33
2018-05-03T10:19:53.149Z,9.47
2018-05-03T10:22:20.689Z,8.60
2018-05-03T10:24:48.256Z,8.50
2018-05-03T10:27:16.561Z,8.13
2018-05-03T10:29:44.109Z,7.80
2018-05-03T10:32:11.648Z,10.50
2018-05-03T10:34:39.202Z,9.33
2018-05-03T10:37:06.746Z,9.50
2018-05-03T10:39:35.043Z,7.70
2018-05-03T10:42:02.655Z,9.13
2018-05-03T10:44:30.169Z,8.00
2018-05-03T10:46:57.725Z,7.50
2018-05-03T10:49:25.263Z,8.60
2018-05-03T10:51:53.581Z,9.30
2018-05-03T10:54:21.121Z,15.33
2018-05-03T10:56:48.678Z,12.07
2018-05-03T10:59:16.206Z,12.10
2018-05-03T11:01:43.769Z,11.40
2018-05-03T11:04:12.079Z,12.33
2018-05-03T11:06:39.638Z,10.63
2018-05-03T11:09:07.169Z,13.50
2018-05-03T11:11:35.490Z,8.87
2018-05-03T11:14:03.030Z,8.53
2018-05-03T11:16:30.586Z,8.07
2018-05-03T11:18:58.150Z,11.70
2018-05-03T11:21:25.710Z,10.37
2018-05-03T11:23:53.290Z,7.50
2018-05-03T11:26:20.853Z,7.77
2018-05-03T11:28:48.389Z,8.70
2018-05-03T11:31:15.950Z,10.30
2018-05-03T11:33:43.495Z,11.57
2018-05-03T11:36:11.818Z,8.60
2018-05-03T11:38:39.349Z,11.63
2018-05-03T11:41:06.906Z,9.00
2018-05-03T11:43:34.443Z,8.57
2018-05-03T11:46:02.764Z,10.87
2018-05-03T11:48:31.061Z,8.07
2018-05-03T11:50:58.616Z,7.60
2018-05-03T11:53:26.152Z,9.50
2018-05-03T11:55:53.723Z,10.40
2018-05-03T11:58:21.257Z,10.70
2018-05-03T12:00:48.812Z,8.77
2018-05-03T12:03:17.118Z,7.83
2018-05-03T12:05:44.676Z,12.23
2018-05-03T12:08:12.216Z,10.30
2018-05-03T12:10:39.800Z,13.97
2018-05-03T12:13:07.326Z,9.90
2018-05-03T12:15:35.649Z,11.93
2018-05-03T12:18:03.172Z,9.20
2018-05-03T12:20:30.730Z,9.00
2018-05-03T12:22:59.032Z,9.40
2018-05-03T12:25:26.578Z,7.50
2018-05-03T12:27:54.118Z,8.60
2018-05-03T12:30:22.442Z,10.70
2018-05-03T12:32:49.984Z,18.80
2018-05-03T12:35:17.560Z,7.03
2018-05-03T12:37:45.099Z,10.03
2018-05-03T12:40:13.405Z,12.50
2018-05-03T12:42:41.033Z,10.40
2018-05-03T12:45:08.529Z,8.47
2018-05-03T12:47:36.082Z,8.17
2018-05-03T12:50:03.615Z,12.33
2018-05-03T12:52:31.171Z,9.40
2018-05-03T12:54:58.713Z,10.07
2018-05-03T12:57:27.038Z,10.03
2018-05-03T12:59:54.572Z,11.80
2018-05-03T13:02:22.135Z,8.77
2018-05-03T13:04:49.680Z,12.10
2018-05-03T13:07:17.250Z,7.73
2018-05-03T13:09:44.785Z,9.00
2018-05-03T13:12:13.109Z,12.60
2018-05-03T13:14:40.640Z,12.30
2018-05-03T13:17:08.241Z,10.63
2018-05-03T13:19:35.781Z,8.90
2018-05-03T13:22:03.344Z,12.70
2018-05-03T13:24:30.880Z,12.70
2018-05-03T13:26:58.463Z,10.17
2018-05-03T13:29:26.005Z,8.53
2018-05-03T13:31:53.563Z,18.50
2018-05-03T13:34:21.099Z,8.87
2018-05-03T13:36:49.469Z,9.60
2018-05-03T13:39:16.996Z,7.57
2018-05-03T13:41:44.555Z,7.90
2018-05-03T13:44:12.090Z,11.00
2018-05-03T13:46:39.662Z,8.90
2018-05-03T13:49:07.201Z,12.37
2018-05-03T13:51:34.757Z,9.90
2018-05-03T13:54:02.299Z,12.10
2018-05-03T13:56:30.628Z,13.83
2018-05-03T13:58:58.164Z,11.00
2018-05-03T14:01:25.720Z,14.10
2018-05-03T14:03:53.255Z,10.23
2018-05-03T14:06:21.579Z,8.03
2018-05-03T14:08:49.114Z,11.83
2018-05-03T14:11:16.673Z,11.60
2018-05-03T14:13:44.205Z,9.03
2018-05-03T14:16:11.774Z,15.80
2018-05-03T14:18:40.080Z,9.53
2018-05-03T14:21:07.697Z,20.40
2018-05-03T14:23:35.218Z,13.70
2018-05-03T14:26:02.781Z,14.80
2018-05-03T14:28:30.314Z,13.10
2018-05-03T14:30:57.880Z,13.60
2018-05-03T14:33:25.419Z,10.20
2018-05-03T14:35:53.747Z,14.53
2018-05-03T14:38:21.304Z,12.93
2018-05-03T14:40:48.845Z,13.80
2018-05-03T14:43:16.409Z,15.80
2018-05-03T14:45:43.958Z,12.50
2018-05-03T14:48:11.520Z,15.03
2018-05-03T14:50:39.075Z,17.57
2018-05-03T14:53:06.642Z,12.70
2018-05-03T14:55:34.180Z,18.93
2018-05-03T14:58:02.508Z,14.97
2018-05-03T15:00:30.043Z,13.83
2018-05-03T15:02:57.603Z,17.83
2018-05-03T15:05:25.133Z,13.43
2018-05-03T15:07:53.462Z,12.40
2018-05-03T15:10:21.005Z,17.07
2018-05-03T15:12:48.584Z,17.40
2018-05-03T15:15:16.135Z,16.73
2018-05-03T15:17:43.702Z,16.80
2018-05-03T15:20:11.238Z,19.60
2018-05-03T15:22:38.806Z,25.13
2018-05-03T15:25:06.355Z,21.73
2018-05-03T15:27:33.929Z,19.93
2018-05-03T15:30:01.473Z,19.00
2018-05-03T15:32:29.042Z,24.73
2018-05-03T15:34:56.586Z,20.73
2018-05-03T15:37:24.151Z,22.73
2018-05-03T15:39:51.695Z,21.37
2018-05-03T15:42:20.023Z,22.50
2018-05-03T15:44:47.567Z,17.10
2018-05-03T15:47:15.119Z,19.97
2018-05-03T15:49:42.664Z,27.33
2018-05-03T15:52:10.225Z,24.33
2018-05-03T15:54:37.761Z,21.63
2018-05-03T15:57:06.096Z,24.00
2018-05-03T15:59:33.643Z,19.17
2018-05-03T16:02:01.212Z,24.37
2018-05-03T16:04:28.754Z,20.23
2018-05-03T16:06:56.326Z,26.50
2018-05-03T16:09:23.862Z,27.07
2018-05-03T16:11:51.436Z,19.00
2018-05-03T16:14:19.013Z,20.80
2018-05-03T16:16:46.560Z,20.13
2018-05-03T16:19:14.103Z,31.23
2018-05-03T16:21:41.666Z,23.87
2018-05-03T16:24:09.212Z,21.13
2018-05-03T16:26:37.540Z,31.27
2018-05-03T16:29:05.077Z,22.30
2018-05-03T16:31:32.619Z,27.00
2018-05-03T16:34:00.187Z,21.33
2018-05-03T16:36:27.743Z,21.37
2018-05-03T16:38:55.306Z,18.97
2018-05-03T16:41:22.867Z,21.27
2018-05-03T16:43:50.437Z,22.00
2018-05-03T16:46:17.980Z,24.57
2018-05-03T16:48:45.533Z,20.83
2018-05-03T16:51:13.829Z,16.10
2018-05-03T16:53:41.391Z,20.93
2018-05-03T16:56:08.932Z,51.57
2018-05-03T16:58:37.272Z,23.93
2018-05-03T17:01:04.806Z,23.13
2018-05-03T17:03:32.371Z,20.03
2018-05-03T17:05:59.917Z,23.37
2018-05-03T17:08:27.483Z,20.97
2018-05-03T17:10:55.017Z,22.13
2018-05-03T17:13:22.578Z,16.53
2018-05-03T17:15:50.121Z,15.00
2018-05-03T17:18:18.451Z,22.13
2018-05-03T17:20:45.994Z,14.67
2018-05-03T17:23:13.564Z,16.30
2018-05-03T17:25:41.107Z,18.80
2018-05-03T17:28:08.671Z,14.50
2018-05-03T17:30:36.211Z,14.70
2018-05-03T17:33:03.775Z,20.43
2018-05-03T17:35:31.309Z,17.93
2018-05-03T17:37:59.649Z,19.00
2018-05-03T17:40:27.191Z,15.60
2018-05-03T17:42:54.759Z,16.83
2018-05-03T17:45:22.303Z,16.67
2018-05-03T17:47:49.863Z,18.77
2018-05-03T17:50:17.399Z,20.07
2018-05-03T17:52:45.728Z,13.73
2018-05-03T17:55:13.263Z,16.97
2018-05-03T17:57:40.819Z,21.33
2018-05-03T18:00:08.393Z,19.33
2018-05-03T18:02:35.956Z,14.93
2018-05-03T18:05:03.490Z,13.30
2018-05-03T18:07:31.040Z,14.03
2018-05-03T18:09:59.351Z,18.80
2018-05-03T18:12:26.910Z,19.13
2018-05-03T18:14:54.471Z,15.13
2018-05-03T18:17:22.034Z,15.37
2018-05-03T18:19:49.579Z,16.40
2018-05-03T18:22:17.140Z,14.50
2018-05-03T18:24:44.683Z,14.63
2018-05-03T18:27:13.008Z,13.50
2018-05-03T18:29:40.551Z,14.30
2018-05-03T18:32:08.089Z,13.83
2018-05-03T18:34:35.655Z,15.97
2018-05-03T18:37:03.188Z,18.73
2018-05-03T18:39:31.572Z,16.30
2018-05-03T18:41:59.874Z,16.50
2018-05-03T18:44:27.431Z,13.27
2018-05-03T18:46:54.975Z,15.53
2018-05-03T18:49:23.316Z,13.83
2018-05-03T18:51:50.854Z,21.00
2018-05-03T18:54:18.408Z,13.67
2018-05-03T18:56:45.947Z,23.33
2018-05-03T18:59:13.513Z,16.03
2018-05-03T19:01:41.050Z,18.00
2018-05-03T19:04:09.448Z,11.17
2018-05-03T19:06:36.993Z,15.73
2018-05-03T19:11:58.726Z,11.27
2018-05-03T19:14:27.073Z,17.73
2018-05-03T19:16:54.618Z,12.60
2018-05-03T19:19:22.177Z,17.20
2018-05-03T19:21:49.725Z,12.13
2018-05-03T19:24:17.285Z,12.33
2018-05-03T19:26:44.821Z,11.10
2018-05-03T19:29:12.381Z,14.30
2018-05-03T19:31:40.678Z,13.70
2018-05-03T19:34:09.479Z,10.87
2018-05-03T19:36:37.027Z,18.70
2018-05-03T19:39:04.617Z,19.80
2018-05-03T19:41:32.148Z,15.93
2018-05-03T19:43:59.707Z,11.90
2018-05-03T19:46:27.249Z,12.97
2018-05-03T19:48:54.816Z,16.73
2018-05-03T19:51:22.363Z,15.93
2018-05-03T19:53:50.686Z,13.53
2018-05-03T19:56:18.222Z,14.00
2018-05-03T19:58:45.786Z,11.20
2018-05-03T20:01:13.434Z,16.27
2018-05-03T20:03:40.989Z,14.33
2018-05-03T20:06:08.548Z,14.20
2018-05-03T20:08:36.870Z,13.13
2018-05-03T20:11:04.407Z,11.97
2018-05-03T20:13:32.075Z,13.13
2018-05-03T20:15:59.607Z,9.73
2018-05-03T20:18:27.918Z,9.57
2018-05-03T20:20:55.454Z,12.77
2018-05-03T20:23:23.011Z,14.73
2018-05-03T20:25:50.559Z,12.47
2018-05-03T20:28:18.895Z,10.87
2018-05-03T20:30:46.428Z,12.23
2018-05-03T20:33:13.988Z,14.70
2018-05-03T20:35:41.525Z,10.60
2018-05-03T20:38:09.081Z,13.30
2018-05-03T20:40:37.388Z,11.47
2018-05-03T20:43:04.942Z,13.37
2018-05-03T20:45:32.471Z,10.87
2018-05-03T20:48:00.800Z,9.80
2018-05-03T20:50:28.329Z,13.30
2018-05-03T20:52:55.865Z,14.03
2018-05-03T20:55:24.187Z,18.57
2018-05-03T20:57:51.729Z,16.90
2018-05-03T21:00:19.290Z,11.93
2018-05-03T21:02:46.822Z,14.87
2018-05-03T21:05:15.145Z,12.57
2018-05-03T21:07:42.706Z,15.63
2018-05-03T21:10:10.268Z,19.40
2018-05-03T21:12:37.885Z,15.33
2018-05-03T21:15:05.397Z,11.87
2018-05-03T21:17:32.955Z,13.70
2018-05-03T21:20:00.582Z,20.20
2018-05-03T21:22:28.122Z,13.07
2018-05-03T21:24:56.437Z,19.03
2018-05-03T21:27:23.975Z,10.90
2018-05-03T21:29:52.302Z,13.13
2018-05-03T21:32:19.842Z,14.63
2018-05-03T21:34:47.396Z,12.67
2018-05-03T21:37:14.935Z,11.83
2018-05-03T21:39:42.493Z,14.23
2018-05-03T21:42:10.026Z,13.37
2018-05-03T21:44:38.352Z,11.10
2018-05-03T21:47:05.897Z,10.13
2018-05-03T21:49:33.464Z,16.57
2018-05-03T21:52:01.004Z,12.80
2018-05-03T21:54:29.325Z,14.20
2018-05-03T21:56:56.862Z,12.57
2018-05-03T21:59:24.412Z,13.33
2018-05-03T22:01:51.955Z,11.00
2018-05-03T22:04:20.284Z,15.83
2018-05-03T22:06:47.823Z,14.17
2018-05-03T22:09:15.379Z,11.67
2018-05-03T22:11:42.922Z,14.83
2018-05-03T22:14:11.257Z,16.13
2018-05-03T22:16:38.793Z,10.80
2018-05-03T22:19:06.357Z,11.60
2018-05-03T22:21:33.901Z,10.43
2018-05-03T22:24:01.458Z,13.87
2018-05-03T22:26:28.994Z,12.10
2018-05-03T22:28:57.314Z,12.13
2018-05-03T22:31:24.853Z,12.23
2018-05-03T22:33:52.425Z,10.83
2018-05-03T22:36:19.969Z,12.30
2018-05-03T22:38:47.531Z,10.13
2018-05-03T22:41:15.076Z,12.40
2018-05-03T22:43:43.413Z,17.53
2018-05-03T22:46:11.709Z,10.77
2018-05-03T22:48:39.253Z,11.23
2018-05-03T22:51:06.820Z,9.17
2018-05-03T22:53:34.358Z,11.90
2018-05-03T22:56:01.929Z,15.20
2018-05-03T22:58:29.468Z,12.60
2018-05-03T23:00:57.020Z,12.20
2018-05-03T23:03:24.564Z,10.67
2018-05-03T23:05:52.126Z,12.20
2018-05-03T23:08:19.663Z,11.33
2018-05-03T23:10:47.992Z,10.53
2018-05-03T23:13:15.522Z,9.27
2018-05-03T23:15:43.078Z,9.83
2018-05-03T23:18:10.609Z,11.73
2018-05-03T23:20:38.172Z,10.87
2018-05-03T23:23:06.474Z,14.50
2018-05-03T23:25:34.031Z,10.10
2018-05-03T23:28:02.337Z,8.87
2018-05-03T23:30:29.925Z,13.73
2018-05-03T23:32:57.465Z,11.37
2018-05-03T23:35:25.028Z,15.83
2018-05-03T23:37:52.562Z,10.13
2018-05-03T23:40:20.113Z,8.60
2018-05-03T23:42:47.645Z,11.20
2018-05-03T23:45:15.967Z,9.67
2018-05-03T23:47:43.504Z,8.17
2018-05-03T23:50:11.063Z,7.37
2018-05-03T23:52:39.378Z,12.00
2018-05-03T23:55:06.927Z,11.97
2018-05-03T23:57:34.463Z,8.10
